Time;durP1;ratioP1;P1;durP2;ratioP2;P2;SDS_P1;SDS_P2;PMS_P1;PMS_P2;Temp;Humidity;BMP_temperature;BMP_pressure;BME280_temperature;BME280_humidity;BME280_pressure;Samples;Min_cycle;Max_cycle;Signal;HPM_P1;HPM_P2
2022/05/22 00:02:21;;;;;;;7.35;3.75;;;;;;;9.07;100.00;101950.13;5018429;28;20631;-79
2022/05/22 00:04:46;;;;;;;6.20;4.32;;;;;;;9.06;100.00;101943.06;5019010;28;20451;-79
2022/05/22 00:07:12;;;;;;;5.53;3.67;;;;;;;9.02;100.00;101941.41;5018091;28;20041;-79
2022/05/22 00:09:38;;;;;;;6.35;3.17;;;;;;;9.01;100.00;101950.25;5018469;28;20128;-79
2022/05/22 00:12:06;;;;;;;8.18;3.35;;;;;;;8.99;100.00;101941.47;5001891;28;20040;-80
2022/05/22 00:14:31;;;;;;;6.45;3.55;;;;;;;8.98;100.00;101939.75;5015008;28;20041;-79
2022/05/22 00:16:59;;;;;;;5.72;3.90;;;;;;;9.00;100.00;101940.59;5014918;28;20040;-78
2022/05/22 00:19:31;;;;;;;5.65;3.30;;;;;;;8.98;100.00;101936.25;5014803;28;20052;-79
2022/05/22 00:21:57;;;;;;;6.10;3.55;;;;;;;8.96;100.00;101933.63;5022675;28;20044;-79
2022/05/22 00:24:26;;;;;;;5.13;3.53;;;;;;;8.93;100.00;101931.06;5016105;28;20048;-78
2022/05/22 00:26:52;;;;;;;6.18;3.22;;;;;;;8.90;100.00;101934.63;5022668;28;20112;-79
2022/05/22 00:29:18;;;;;;;8.65;3.42;;;;;;;8.89;100.00;101932.88;5015685;28;20494;-79
2022/05/22 00:31:44;;;;;;;5.95;3.53;;;;;;;8.89;100.00;101934.66;4997799;28;20037;-79
2022/05/22 00:34:10;;;;;;;8.55;3.75;;;;;;;8.87;100.00;101931.19;5014714;28;20029;-79
2022/05/22 00:36:36;;;;;;;7.15;4.07;;;;;;;8.87;100.00;101920.63;5016229;28;20033;-78
2022/05/22 00:39:02;;;;;;;6.82;4.07;;;;;;;8.87;100.00;101916.19;5014479;28;20045;-79
2022/05/22 00:41:29;;;;;;;9.73;4.40;;;;;;;8.92;100.00;101916.09;5020135;28;20037;-78
2022/05/22 00:43:56;;;;;;;8.48;3.78;;;;;;;8.97;100.00;101927.44;5030606;28;20091;-79
2022/05/22 00:46:22;;;;;;;6.97;3.72;;;;;;;8.99;100.00;101930.06;5015977;28;20383;-79
2022/05/22 00:48:53;;;;;;;8.82;4.18;;;;;;;8.96;100.00;101926.59;5015890;28;20055;-78
2022/05/22 00:51:43;;;;;;;7.65;4.07;;;;;;;8.94;100.00;101911.66;4997852;28;20037;-78
2022/05/22 00:54:21;;;;;;;7.75;3.33;;;;;;;8.92;100.00;101910.81;5030386;28;20049;-78
2022/05/22 00:56:59;;;;;;;12.40;3.88;;;;;;;8.90;100.00;101909.97;5005308;28;20045;-78
2022/05/22 00:59:28;;;;;;;8.63;3.85;;;;;;;8.87;100.00;101910.91;5030309;28;20041;-78
2022/05/22 01:01:55;;;;;;;10.02;4.15;;;;;;;8.82;100.00;101910.13;5014512;28;20037;-79
2022/05/22 01:04:23;;;;;;;5.10;3.25;;;;;;;8.78;100.00;101906.69;5015250;28;20041;-78
2022/05/22 01:06:49;;;;;;;5.47;3.83;;;;;;;8.75;100.00;101908.53;5021838;28;20029;-79
2022/05/22 01:09:16;;;;;;;9.50;3.70;;;;;;;8.72;100.00;101917.38;5013582;28;20033;-78
2022/05/22 01:11:41;;;;;;;6.40;4.05;;;;;;;8.70;100.00;101919.19;5005107;28;20496;-78
2022/05/22 01:14:11;;;;;;;8.13;3.83;;;;;;;8.67;100.00;101924.53;5013358;28;20044;-78
2022/05/22 01:16:36;;;;;;;6.05;3.28;;;;;;;8.65;100.00;101921.03;5011715;28;20041;-78
2022/05/22 01:19:10;;;;;;;7.05;3.28;;;;;;;8.64;100.00;101922.84;5014758;28;20033;-79
2022/05/22 01:21:36;;;;;;;7.00;3.97;;;;;;;8.63;100.00;101918.47;5021716;28;20051;-78
2022/05/22 01:24:02;;;;;;;4.45;3.50;;;;;;;8.66;100.00;101923.66;5013194;28;20447;-79
2022/05/22 01:26:29;;;;;;;8.32;4.03;;;;;;;8.64;100.00;101924.59;5014987;28;20037;-78
2022/05/22 01:28:54;;;;;;;7.03;4.13;;;;;;;8.65;100.00;101921.94;5013098;28;20396;-78
2022/05/22 01:31:20;;;;;;;7.47;4.13;;;;;;;8.65;100.00;101929.84;5013417;28;20021;-78
2022/05/22 01:33:45;;;;;;;7.72;3.63;;;;;;;8.62;100.00;101929.03;5030083;28;20041;-78
2022/05/22 01:36:11;;;;;;;7.07;4.00;;;;;;;8.59;100.00;101927.31;5014873;28;20143;-78
2022/05/22 01:38:37;;;;;;;6.28;4.18;;;;;;;8.53;100.00;101916.88;5014810;28;20121;-78
2022/05/22 01:41:04;;;;;;;6.35;3.47;;;;;;;8.50;100.00;101933.63;5014880;28;20124;-78
2022/05/22 01:43:30;;;;;;;9.30;3.78;;;;;;;8.47;100.00;101925.78;5015056;28;20033;-78
2022/05/22 01:45:55;;;;;;;7.30;3.63;;;;;;;8.44;100.00;101925.81;5021818;28;20040;-78
2022/05/22 01:48:22;;;;;;;7.93;3.65;;;;;;;8.43;100.00;101926.72;5029717;28;20051;-78
2022/05/22 01:50:47;;;;;;;4.47;3.50;;;;;;;8.41;100.00;101917.97;5014241;28;20033;-78
2022/05/22 01:53:13;;;;;;;7.00;4.35;;;;;;;8.40;100.00;101897.75;5029289;28;20103;-77
2022/05/22 01:55:39;;;;;;;5.57;3.63;;;;;;;8.41;100.00;101902.13;5004673;28;20033;-77
2022/05/22 01:58:06;;;;;;;7.38;4.03;;;;;;;8.45;100.00;101898.53;5014703;28;20570;-77
2022/05/22 02:00:33;;;;;;;7.20;3.28;;;;;;;8.46;100.00;101900.28;5014782;28;20037;-77
2022/05/22 02:02:58;;;;;;;6.45;3.72;;;;;;;8.46;100.00;101902.91;5013179;28;20033;-77
2022/05/22 02:05:24;;;;;;;4.80;3.00;;;;;;;8.43;100.00;101897.69;5014313;28;20041;-77
2022/05/22 02:10:36;;;;;;;7.50;3.38;;;;;;;8.36;100.00;101894.31;5014187;28;20034;-77
2022/05/22 02:13:02;;;;;;;5.45;3.25;;;;;;;8.34;100.00;101900.50;5018166;28;20080;-77
2022/05/22 02:15:28;;;;;;;3.92;2.83;;;;;;;8.35;100.00;101896.97;5041209;28;20040;-77
2022/05/22 02:17:54;;;;;;;5.80;3.50;;;;;;;8.31;100.00;101896.16;5023077;28;20041;-77
2022/05/22 02:20:20;;;;;;;4.95;3.22;;;;;;;8.32;100.00;101889.13;5040585;28;20044;-77
2022/05/22 02:22:48;;;;;;;6.95;3.28;;;;;;;8.29;100.00;101890.91;5040519;28;20288;-77
2022/05/22 02:25:23;;;;;;;4.72;2.63;;;;;;;8.26;100.00;101888.34;5040701;28;20045;-77
2022/05/22 02:27:48;;;;;;;5.60;2.90;;;;;;;8.22;100.00;101886.66;5022941;28;20029;-77
2022/05/22 02:30:18;;;;;;;4.32;2.90;;;;;;;8.20;100.00;101888.44;5022925;28;20056;-77
2022/05/22 02:32:43;;;;;;;6.03;2.92;;;;;;;8.18;100.00;101885.00;5040659;28;20036;-77
2022/05/22 02:35:10;;;;;;;4.78;2.72;;;;;;;8.19;100.00;101884.09;5022685;28;20041;-77
2022/05/22 02:37:44;;;;;;;5.03;2.75;;;;;;;8.21;100.00;101870.84;5013939;28;20506;-77
2022/05/22 02:40:11;;;;;;;5.72;3.45;;;;;;;8.24;100.00;101873.44;5022833;28;20044;-77
2022/05/22 02:42:46;;;;;;;5.68;3.25;;;;;;;8.30;100.00;101873.31;5006155;28;20403;-77
2022/05/22 02:45:13;;;;;;;21.58;3.97;;;;;;;8.32;100.00;101857.47;5040562;28;20517;-77
2022/05/22 02:47:39;;;;;;;21.63;3.42;;;;;;;8.38;100.00;101865.22;5022122;28;20618;-77
2022/05/22 02:50:06;;;;;;;16.63;2.85;;;;;;;8.39;100.00;101859.09;5022274;28;20033;-77
2022/05/22 02:52:31;;;;;;;38.28;3.05;;;;;;;8.36;100.00;101848.56;5039867;28;20049;-77
2022/05/22 02:54:57;;;;;;;20.63;2.90;;;;;;;8.34;100.00;101850.38;5040615;28;20056;-77
2022/05/22 02:57:23;;;;;;;29.67;2.53;;;;;;;8.31;100.00;101853.06;5040544;28;20024;-77
2022/05/22 02:59:49;;;;;;;27.98;2.90;;;;;;;8.29;100.00;101850.47;5040368;28;20028;-76
2022/05/22 03:02:15;;;;;;;22.25;2.78;;;;;;;8.28;100.00;101854.00;5022199;28;20017;-76
2022/05/22 03:04:41;;;;;;;24.48;2.72;;;;;;;8.28;100.00;101843.44;5040217;28;20036;-76
2022/05/22 03:07:08;;;;;;;24.42;2.53;;;;;;;8.25;100.00;101836.47;5040185;28;20067;-76
2022/05/22 03:09:36;;;;;;;20.95;2.50;;;;;;;8.22;100.00;101852.34;5040040;28;20017;-76
2022/05/22 03:12:06;;;;;;;34.92;2.92;;;;;;;8.20;100.00;101845.34;5040244;28;20029;-76
2022/05/22 03:14:32;;;;;;;23.00;2.75;;;;;;;8.17;100.00;101846.28;5039798;28;20041;-76
2022/05/22 03:16:57;;;;;;;30.27;2.90;;;;;;;8.16;100.00;101844.56;5039941;28;20064;-76
2022/05/22 03:19:23;;;;;;;23.42;2.60;;;;;;;8.17;100.00;101845.44;5040076;28;20823;-76
2022/05/22 03:21:50;;;;;;;19.05;3.05;;;;;;;8.19;100.00;101846.28;5039806;28;20068;-76
2022/05/22 03:24:15;;;;;;;18.02;2.65;;;;;;;8.22;100.00;101839.16;5020068;28;20502;-76
2022/05/22 03:26:41;;;;;;;12.73;3.00;;;;;;;8.21;100.00;101837.44;5035187;28;20081;-76
2022/05/22 03:29:07;;;;;;;10.98;2.65;;;;;;;8.22;100.00;101844.44;5036503;28;20120;-76
2022/05/22 03:31:32;;;;;;;11.90;3.10;;;;;;;8.26;100.00;101837.34;5018502;28;20622;-76
2022/05/22 03:33:58;;;;;;;26.08;3.20;;;;;;;8.29;100.00;101851.34;5036332;28;20159;-76
2022/05/22 03:36:24;;;;;;;16.40;3.38;;;;;;;8.31;100.00;101843.41;5026613;28;20045;-76
2022/05/22 03:38:50;;;;;;;24.90;3.33;;;;;;;8.32;100.00;101839.00;5018424;28;20169;-76
2022/05/22 03:41:16;;;;;;;18.67;3.72;;;;;;;8.36;100.00;101832.75;5018332;28;20047;-76
2022/05/22 03:43:41;;;;;;;23.33;3.28;;;;;;;8.37;100.00;101831.84;5018703;28;20025;-77
2022/05/22 03:46:07;;;;;;;28.33;3.72;;;;;;;8.40;100.00;101834.44;5036755;28;20075;-77
2022/05/22 03:48:33;;;;;;;7.70;3.15;;;;;;;8.41;100.00;101834.38;5036176;28;20037;-78
2022/05/22 03:50:58;;;;;;;18.00;3.72;;;;;;;8.47;100.00;101837.78;5018336;28;20094;-77
2022/05/22 03:53:25;;;;;;;12.02;3.60;;;;;;;8.48;100.00;101834.25;5018705;28;20076;-77
2022/05/22 03:55:50;;;;;;;31.02;4.03;;;;;;;8.43;100.00;101832.59;5036298;28;20792;-77
2022/05/22 03:58:17;;;;;;;42.50;4.03;;;;;;;8.39;100.00;101827.41;5037088;28;20136;-77
2022/05/22 04:00:43;;;;;;;29.30;3.60;;;;;;;8.35;100.00;101823.09;5002057;28;21091;-77
2022/05/22 04:03:09;;;;;;;19.83;3.60;;;;;;;8.31;100.00;101834.59;5036320;28;20100;-77
2022/05/22 04:05:34;;;;;;;18.90;3.47;;;;;;;8.28;100.00;101832.88;5035860;28;20120;-77
2022/05/22 04:08:00;;;;;;;14.15;3.13;;;;;;;8.25;100.00;101833.84;5035938;28;20029;-77
2022/05/22 04:10:25;;;;;;;13.45;3.75;;;;;;;8.23;100.00;101835.63;5017801;28;20053;-79
2022/05/22 04:12:51;;;;;;;15.05;3.60;;;;;;;8.18;100.00;101826.94;5017536;28;21004;-78
2022/05/22 04:15:19;;;;;;;29.75;3.88;;;;;;;8.15;100.00;101840.19;5014351;28;20069;-77
2022/05/22 04:17:45;;;;;;;15.23;3.67;;;;;;;8.18;100.00;101828.69;5016460;28;20037;-77
2022/05/22 04:20:12;;;;;;;21.50;3.85;;;;;;;8.21;100.00;101833.91;5015732;28;20125;-77
2022/05/22 04:25:11;;;;;;;15.77;4.10;;;;;;;8.24;100.00;101826.81;5015851;28;20041;-79
2022/05/22 04:25:23;;;;;;;13.60;3.90;;;;;;;8.29;100.00;101830.22;5016097;28;20404;-77
2022/05/22 04:27:50;;;;;;;16.67;4.53;;;;;;;8.33;100.00;101830.19;5016231;28;20551;-77
2022/05/22 04:30:19;;;;;;;19.83;4.13;;;;;;;8.34;100.00;101824.84;5016063;28;20098;-78
2022/05/22 04:32:49;;;;;;;10.77;3.67;;;;;;;8.34;100.00;101832.75;5015957;28;20036;-77
2022/05/22 04:35:15;;;;;;;18.40;4.00;;;;;;;8.33;100.00;101830.19;5016138;28;20044;-79
2022/05/22 04:37:41;;;;;;;32.20;4.20;;;;;;;8.29;100.00;101835.50;4998491;28;20108;-79
2022/05/22 04:40:08;;;;;;;9.25;3.60;;;;;;;8.26;100.00;101825.03;5015386;28;20056;-78
2022/05/22 04:42:35;;;;;;;13.50;3.53;;;;;;;8.28;100.00;101822.31;5030636;28;20215;-78
2022/05/22 04:45:01;;;;;;;11.02;3.75;;;;;;;8.29;100.00;101824.94;5015410;28;20036;-78
2022/05/22 04:47:27;;;;;;;6.55;3.70;;;;;;;8.33;100.00;101824.91;5015146;28;20495;-78
2022/05/22 04:49:52;;;;;;;9.13;4.20;;;;;;;8.37;100.00;101829.19;5015751;28;20037;-77
2022/05/22 04:52:18;;;;;;;4.78;3.38;;;;;;;8.40;100.00;101827.34;5014956;28;20212;-77
2022/05/22 04:54:43;;;;;;;7.15;4.43;;;;;;;8.42;100.00;101828.22;5015400;28;20120;-77
2022/05/22 04:57:09;;;;;;;8.07;4.45;;;;;;;8.46;100.00;101823.75;5014910;28;20056;-77
2022/05/22 04:59:34;;;;;;;6.75;4.20;;;;;;;8.50;100.00;101827.19;5030037;28;20141;-78
2022/05/22 05:02:01;;;;;;;7.97;4.38;;;;;;;8.49;100.00;101815.75;5015119;28;20144;-77
2022/05/22 05:04:26;;;;;;;7.40;4.05;;;;;;;8.52;100.00;101821.00;4998045;28;20041;-78
2022/05/22 05:06:52;;;;;;;7.50;4.15;;;;;;;8.58;100.00;101816.47;5015182;28;20111;-77
2022/05/22 05:09:18;;;;;;;6.65;4.85;;;;;;;8.63;100.00;101815.50;5015169;28;20053;-78
2022/05/22 05:11:44;;;;;;;7.55;4.57;;;;;;;8.69;100.00;101815.38;5021673;28;20664;-78
2022/05/22 05:14:09;;;;;;;10.60;4.43;;;;;;;8.79;100.00;101817.78;5029855;28;20065;-77
2022/05/22 05:16:35;;;;;;;8.85;4.82;;;;;;;8.92;100.00;101821.91;5014605;28;20414;-77
2022/05/22 05:19:01;;;;;;;7.45;4.68;;;;;;;9.06;100.00;101815.44;5013494;28;20041;-77
2022/05/22 05:21:28;;;;;;;9.13;5.13;;;;;;;9.25;100.00;101821.13;5029631;28;20530;-78
2022/05/22 05:23:55;;;;;;;9.90;5.05;;;;;;;9.45;100.00;101819.78;5013453;28;20112;-77
2022/05/22 05:26:21;;;;;;;10.90;5.28;;;;;;;9.64;100.00;101821.03;5029619;28;20139;-78
2022/05/22 05:28:48;;;;;;;10.43;4.47;;;;;;;9.81;100.00;101816.22;5015034;28;20041;-77
2022/05/22 05:31:13;;;;;;;8.30;5.03;;;;;;;9.96;100.00;101821.09;5013329;28;20029;-77
2022/05/22 05:33:39;;;;;;;7.97;4.68;;;;;;;10.14;100.00;101821.50;5014774;28;20476;-76
2022/05/22 05:36:08;;;;;;;11.25;5.75;;;;;;;10.31;100.00;101818.38;5013392;28;20147;-77
2022/05/22 05:38:33;;;;;;;8.95;4.50;;;;;;;10.46;100.00;101812.66;5029556;28;20673;-77
2022/05/22 05:40:59;;;;;;;11.77;5.32;;;;;;;10.65;100.00;101819.19;5012981;28;20583;-77
2022/05/22 05:43:24;;;;;;;8.02;4.82;;;;;;;10.82;100.00;101813.38;5012951;28;20033;-77
2022/05/22 05:45:50;;;;;;;10.13;5.97;;;;;;;10.99;100.00;101816.38;5014577;28;20037;-77
2022/05/22 05:48:17;;;;;;;8.23;4.95;;;;;;;11.20;100.00;101813.94;5014401;28;20026;-77
2022/05/22 05:50:43;;;;;;;7.32;4.90;;;;;;;11.40;100.00;101815.06;5014455;28;20033;-77
2022/05/22 05:53:08;;;;;;;9.98;4.63;;;;;;;11.65;100.00;101811.56;5012161;28;20052;-78
2022/05/22 05:55:34;;;;;;;6.35;4.03;;;;;;;11.85;100.00;101812.66;5014302;28;20029;-78
2022/05/22 05:58:00;;;;;;;11.73;4.80;;;;;;;11.98;100.00;101808.66;5012327;28;20041;-78
2022/05/22 06:00:25;;;;;;;7.93;3.67;;;;;;;12.22;100.00;101809.56;5014049;28;20037;-78
2022/05/22 06:02:51;;;;;;;9.30;4.18;;;;;;;12.42;100.00;101807.13;5020974;28;20044;-77
2022/05/22 06:05:17;;;;;;;8.45;4.10;;;;;;;12.58;100.00;101800.28;5012805;28;20206;-77
2022/05/22 06:07:43;;;;;;;6.20;3.63;;;;;;;12.73;100.00;101798.81;5021361;28;20033;-77
2022/05/22 06:10:10;;;;;;;4.03;3.08;;;;;;;12.86;100.00;101795.69;5014541;28;20483;-77
2022/05/22 06:12:36;;;;;;;7.45;3.80;;;;;;;13.01;100.00;101794.19;5014030;28;20107;-78
2022/05/22 06:15:01;;;;;;;5.38;3.70;;;;;;;13.16;100.00;101806.00;5028495;28;20041;-77
2022/05/22 06:17:38;;;;;;;5.88;3.30;;;;;;;13.31;100.00;101799.19;5033761;28;20575;-76
2022/05/22 06:20:07;;;;;;;4.72;3.17;;;;;;;13.43;100.00;101793.34;5033918;28;21413;-77
2022/05/22 06:22:34;;;;;;;8.82;3.83;;;;;;;13.57;100.00;101800.75;5032055;28;21467;-77
2022/05/22 06:25:00;;;;;;;8.48;3.25;;;;;;;13.74;100.00;101799.19;5015619;28;20039;-77
2022/05/22 06:27:26;;;;;;;7.03;3.67;;;;;;;13.92;100.00;101797.50;5033852;28;20033;-78
2022/05/22 06:29:52;;;;;;;6.30;3.40;;;;;;;14.28;100.00;101795.03;5033515;28;20048;-78
2022/05/22 06:32:19;;;;;;;5.40;3.20;;;;;;;14.57;100.00;101804.34;5032316;28;20041;-78
2022/05/22 06:34:47;;;;;;;4.05;2.85;;;;;;;14.79;100.00;101801.53;5016009;28;20024;-78
2022/05/22 06:37:18;;;;;;;5.22;2.75;;;;;;;14.92;100.00;101806.25;5033605;28;20524;-78
2022/05/22 06:39:53;;;;;;;4.93;2.80;;;;;;;15.06;100.00;101801.16;5032081;28;20498;-78
2022/05/22 06:42:28;;;;;;;4.20;2.72;;;;;;;15.28;100.00;101799.19;5033693;28;20128;-78
2022/05/22 06:45:16;;;;;;;5.65;2.65;;;;;;;15.51;100.00;101805.19;5034075;28;20382;-79
2022/05/22 06:47:43;;;;;;;7.38;2.40;;;;;;;15.78;100.00;101805.53;5033933;28;20032;-78
2022/05/22 06:50:12;;;;;;;3.53;2.20;;;;;;;16.02;100.00;101815.91;5015441;28;20102;-78
2022/05/22 06:52:38;;;;;;;4.82;2.30;;;;;;;16.25;100.00;101803.13;5033412;28;20090;-78
2022/05/22 06:55:05;;;;;;;2.83;2.35;;;;;;;16.23;100.00;101805.88;5033490;28;20036;-78
2022/05/22 06:57:31;;;;;;;4.07;2.17;;;;;;;16.27;100.00;101807.44;5033540;28;20033;-78
2022/05/22 06:59:58;;;;;;;3.53;2.10;;;;;;;16.38;100.00;101800.63;5035622;28;20043;-78
2022/05/22 07:02:27;;;;;;;5.13;2.15;;;;;;;16.49;100.00;101806.25;5037509;28;20029;-78
2022/05/22 07:04:55;;;;;;;5.57;2.15;;;;;;;16.58;100.00;101787.97;5035947;28;20037;-79
2022/05/22 07:07:21;;;;;;;3.28;2.00;;;;;;;16.73;100.00;101792.47;5035941;28;21827;-78
2022/05/22 07:09:47;;;;;;;4.53;2.40;;;;;;;16.92;97.43;101786.06;5003049;28;20120;-79
2022/05/22 07:12:15;;;;;;;3.78;2.45;;;;;;;17.03;98.01;101785.47;5019953;28;20044;-78
2022/05/22 07:14:42;;;;;;;4.40;1.60;;;;;;;17.19;97.54;101780.97;5037103;28;20065;-77
2022/05/22 07:17:10;;;;;;;3.30;1.40;;;;;;;17.19;89.85;101783.66;5037651;28;20579;-78
2022/05/22 07:19:37;;;;;;;3.63;1.40;;;;;;;17.31;92.42;101781.16;5037103;28;20033;-78
2022/05/22 07:22:06;;;;;;;3.67;1.40;;;;;;;17.47;92.03;101783.81;5037630;28;20056;-78
2022/05/22 07:24:35;;;;;;;4.15;1.85;;;;;;;17.58;91.99;101777.78;5019198;28;20036;-79
2022/05/22 07:27:01;;;;;;;3.88;1.88;;;;;;;17.63;91.52;101776.59;5037104;28;20492;-78
2022/05/22 07:29:27;;;;;;;3.90;1.80;;;;;;;17.70;90.54;101777.06;5037304;28;20125;-78
2022/05/22 07:31:54;;;;;;;5.55;1.88;;;;;;;17.75;87.32;101780.31;5035689;28;20029;-79
2022/05/22 07:34:20;;;;;;;3.38;1.67;;;;;;;17.96;89.64;101777.28;5036953;28;20029;-78
2022/05/22 07:36:46;;;;;;;5.25;1.52;;;;;;;18.01;88.55;101780.53;4994397;28;20374;-79
2022/05/22 07:39:12;;;;;;;3.83;1.75;;;;;;;18.01;87.09;101776.97;5019028;28;20139;-78
2022/05/22 07:41:37;;;;;;;4.43;1.70;;;;;;;18.01;87.32;101788.56;5036768;28;20140;-79
2022/05/22 07:44:03;;;;;;;5.00;2.00;;;;;;;18.21;87.90;101785.63;5037001;28;20163;-79
2022/05/22 07:46:28;;;;;;;3.75;2.00;;;;;;;18.34;87.68;101785.72;5036964;28;20384;-79
2022/05/22 07:48:54;;;;;;;3.78;1.85;;;;;;;18.55;86.69;101784.34;5036768;28;20040;-78
2022/05/22 07:51:20;;;;;;;2.17;1.70;;;;;;;18.67;82.56;101787.16;5036849;28;20124;-79
2022/05/22 07:53:46;;;;;;;4.88;1.85;;;;;;;18.78;79.80;101790.00;5026347;28;20064;-78
2022/05/22 07:56:13;;;;;;;2.85;1.70;;;;;;;18.83;81.82;101787.91;5036198;28;20124;-79
2022/05/22 07:58:39;;;;;;;3.50;1.67;;;;;;;18.81;79.42;101791.63;5018748;28;20032;-78
2022/05/22 08:01:05;;;;;;;4.65;1.50;;;;;;;18.87;80.56;101786.72;5034489;28;21412;-78
2022/05/22 08:03:32;;;;;;;5.35;1.77;;;;;;;18.79;77.21;101786.38;5017797;28;20028;-79
2022/05/22 08:05:58;;;;;;;2.85;1.63;;;;;;;18.81;76.06;101778.22;5001790;28;20065;-79
2022/05/22 08:08:24;;;;;;;3.35;1.70;;;;;;;18.85;78.81;101775.22;5018156;28;20560;-79
2022/05/22 08:10:49;;;;;;;3.13;1.77;;;;;;;18.80;78.69;101777.34;5035370;28;20055;-79
2022/05/22 08:13:15;;;;;;;5.72;2.10;;;;;;;18.81;74.56;101773.75;5009209;28;20033;-78
2022/05/22 08:15:41;;;;;;;5.45;1.98;;;;;;;18.96;76.84;101776.38;5014341;28;20132;-78
2022/05/22 08:18:08;;;;;;;3.70;1.55;;;;;;;19.11;77.88;101770.00;5014293;28;20043;-79
2022/05/22 08:20:36;;;;;;;3.65;1.83;;;;;;;19.22;77.39;101773.75;5030917;28;20041;-79
2022/05/22 08:23:09;;;;;;;3.17;1.70;;;;;;;19.26;74.56;101773.47;5015673;28;20041;-79
2022/05/22 08:25:35;;;;;;;3.38;1.83;;;;;;;19.23;74.90;101772.81;5015948;28;20400;-79
2022/05/22 08:28:00;;;;;;;4.15;2.20;;;;;;;19.26;73.44;101772.59;5015962;28;20033;-78
2022/05/22 08:30:28;;;;;;;3.58;1.60;;;;;;;19.28;75.30;101770.66;5015759;28;20045;-79
2022/05/22 08:32:54;;;;;;;4.05;1.73;;;;;;;19.24;70.58;101774.53;5015526;28;20381;-78
2022/05/22 08:35:25;;;;;;;3.80;1.73;;;;;;;19.18;75.17;101774.94;5015619;28;20033;-78
2022/05/22 08:37:51;;;;;;;3.47;2.30;;;;;;;19.36;76.49;101771.03;5015837;28;20524;-79
2022/05/22 08:40:18;;;;;;;5.95;1.95;;;;;;;19.52;75.03;101778.00;5021374;28;20128;-78
2022/05/22 08:42:50;;;;;;;2.70;1.90;;;;;;;19.57;74.86;101767.81;5015438;28;20482;-78
2022/05/22 08:45:27;;;;;;;4.23;2.40;;;;;;;19.72;72.47;101770.41;5022116;28;20646;-78
2022/05/22 08:48:00;;;;;;;5.07;2.40;;;;;;;19.67;71.48;101771.56;5030619;28;20306;-78
2022/05/22 08:50:29;;;;;;;3.35;1.95;;;;;;;19.36;72.26;101770.16;5013924;28;20717;-78
2022/05/22 08:53:00;;;;;;;2.85;1.98;;;;;;;19.25;71.17;101770.88;4997786;28;20044;-78
2022/05/22 09:01:09;;;;;;;6.53;2.47;;;;;;;18.94;74.56;101767.53;5014421;28;20091;-80
2022/05/22 09:04:02;;;;;;;6.03;2.38;;;;;;;19.05;74.74;101759.66;5013777;28;20048;-79
2022/05/22 09:06:32;;;;;;;5.82;2.03;;;;;;;19.22;72.14;101757.66;4993568;28;20149;-78
2022/05/22 09:08:58;;;;;;;2.65;1.60;;;;;;;19.27;74.30;101758.22;5014859;28;20128;-79
2022/05/22 09:11:27;;;;;;;3.83;2.00;;;;;;;19.42;70.36;101764.34;5030106;28;20035;-79
2022/05/22 09:14:05;;;;;;;4.28;1.60;;;;;;;19.46;70.84;101746.22;5019315;28;20041;-78
2022/05/22 09:16:35;;;;;;;5.35;2.00;;;;;;;19.53;72.46;101747.50;5016735;28;20058;-79
2022/05/22 09:19:12;;;;;;;2.10;1.80;;;;;;;19.56;70.65;101738.38;5034737;28;20036;-79
2022/05/22 09:21:52;;;;;;;3.42;1.55;;;;;;;19.62;70.83;101741.47;5015952;28;20045;-79
2022/05/22 09:24:30;;;;;;;3.25;1.80;;;;;;;19.72;71.31;101733.63;5034530;28;20590;-78
2022/05/22 09:27:07;;;;;;;4.85;1.77;;;;;;;19.87;71.24;101731.69;5024275;28;20033;-79
2022/05/22 09:29:48;;;;;;;3.95;1.85;;;;;;;19.94;68.17;101730.28;5016180;28;20044;-78
2022/05/22 09:32:38;;;;;;;4.35;1.67;;;;;;;19.86;68.12;101726.44;5016409;28;20029;-77
2022/05/22 09:35:29;;;;;;;3.15;1.42;;;;;;;19.90;69.28;101718.06;5034290;28;20037;-79
2022/05/22 09:38:07;;;;;;;5.38;1.45;;;;;;;20.03;68.37;101717.19;5034291;28;20025;-79
2022/05/22 09:40:50;;;;;;;2.28;1.25;;;;;;;20.08;66.63;101715.03;5034370;28;20031;-79
2022/05/22 09:43:53;;;;;;;4.03;1.10;;;;;;;20.03;62.86;101709.13;5032996;28;20368;-79
2022/05/22 09:46:21;;;;;;;;;;;;;;;20.02;60.31;101710.97;5035341;28;20106;-79
2022/05/22 09:48:52;;;;;;;1.95;1.00;;;;;;;19.96;64.35;101706.03;5034031;28;19970;-79
2022/05/22 09:51:50;;;;;;;3.17;0.90;;;;;;;19.91;56.92;101702.78;5033867;28;20031;-79
2022/05/22 09:54:20;;;;;;;2.13;0.90;;;;;;;19.80;63.91;101707.13;5015933;28;20418;-79
2022/05/22 09:57:05;;;;;;;4.53;0.80;;;;;;;19.80;60.33;101698.19;5016465;28;20041;-79
2022/05/22 10:00:06;;;;;;;2.75;0.95;;;;;;;19.80;63.50;101700.88;5016102;28;20037;-78
2022/05/22 10:02:34;;;;;;;3.13;1.00;;;;;;;19.81;62.99;101691.84;5033858;28;20185;-79
2022/05/22 10:05:30;;;;;;;2.35;0.70;;;;;;;19.79;58.22;101691.09;5034676;28;20043;-79
2022/05/22 10:08:11;;;;;;;0.88;0.73;;;;;;;19.69;60.30;101685.53;5034252;28;20033;-79
2022/05/22 10:11:05;;;;;;;2.55;1.08;;;;;;;19.60;59.65;101680.81;5033820;28;20041;-79
2022/05/22 10:13:40;;;;;;;1.80;0.80;;;;;;;19.66;62.29;101678.53;5015842;28;20048;-78
2022/05/22 10:16:06;;;;;;;2.30;0.80;;;;;;;19.70;63.19;101672.94;4999762;28;20577;-79
2022/05/22 10:18:50;;;;;;;3.53;1.00;;;;;;;19.66;59.69;101670.47;5015524;28;20044;-79
2022/05/22 10:21:22;;;;;;;3.47;1.40;;;;;;;19.61;58.16;101669.94;5032037;28;20049;-79
2022/05/22 10:23:50;;;;;;;3.30;1.10;;;;;;;19.55;62.08;101667.69;4991084;28;20029;-79
2022/05/22 10:26:41;;;;;;;1.42;0.88;;;;;;;19.63;63.65;101657.28;5015937;28;20287;-79
2022/05/22 10:29:37;;;;;;;1.40;0.75;;;;;;;19.61;58.73;101661.88;5015830;28;20029;-79
2022/05/22 10:32:02;;;;;;;2.90;1.10;;;;;;;19.70;61.32;101668.44;5033579;28;20549;-79
2022/05/22 10:34:51;;;;;;;2.33;0.80;;;;;;;19.73;60.83;101667.34;5036599;28;20029;-80
2022/05/22 10:37:28;;;;;;;6.15;1.27;;;;;;;19.79;59.79;101662.38;5019754;28;20041;-80
2022/05/22 10:39:54;;;;;;;1.65;1.05;;;;;;;19.88;62.26;101655.50;5019954;28;20041;-80
2022/05/22 10:42:46;;;;;;;1.35;0.70;;;;;;;19.97;58.26;101659.38;5037271;28;20035;-78
2022/05/22 10:45:32;;;;;;;3.17;1.17;;;;;;;20.07;58.60;101660.44;5018566;28;21378;-80
2022/05/22 10:48:07;;;;;;;1.55;0.80;;;;;;;20.04;59.67;101646.38;5003112;28;20041;-79
2022/05/22 10:50:33;;;;;;;0.80;0.55;;;;;;;20.04;59.96;101647.22;5035737;28;20487;-80
2022/05/22 10:52:59;;;;;;;1.90;0.80;;;;;;;20.04;58.72;101649.91;5003874;28;20045;-79
2022/05/22 10:55:37;;;;;;;3.15;0.90;;;;;;;19.92;59.40;101640.88;5019338;28;20036;-80
2022/05/22 10:58:06;;;;;;;2.50;0.80;;;;;;;19.95;60.89;101640.69;5036211;28;20099;-80
2022/05/22 11:00:32;;;;;;;1.83;1.00;;;;;;;19.94;59.96;101641.63;5019731;28;20104;-79
2022/05/22 11:03:09;;;;;;;2.13;0.80;;;;;;;19.96;57.99;101646.91;5019714;28;20095;-80
2022/05/22 11:05:35;;;;;;;2.58;1.00;;;;;;;20.03;60.31;101647.31;5019468;28;20020;-80
2022/05/22 11:08:00;;;;;;;1.88;0.90;;;;;;;20.14;59.65;101638.47;5037131;28;20036;-78
2022/05/22 11:10:33;;;;;;;2.30;1.02;;;;;;;20.07;58.23;101630.00;5037168;28;20040;-80
2022/05/22 11:13:10;;;;;;;2.20;0.90;;;;;;;19.99;58.91;101622.50;5019089;28;20029;-79
2022/05/22 11:15:42;;;;;;;2.80;1.00;;;;;;;20.10;57.59;101624.41;5037101;28;20224;-79
2022/05/22 11:18:10;;;;;;;1.15;1.00;;;;;;;20.11;58.83;101622.56;5037343;28;20669;-80
2022/05/22 11:20:46;;;;;;;1.10;0.90;;;;;;;20.10;57.48;101623.56;5019036;28;20033;-79
2022/05/22 11:23:18;;;;;;;4.03;1.20;;;;;;;19.90;59.76;101621.34;5027081;28;20045;-80
2022/05/22 11:26:02;;;;;;;2.20;1.15;;;;;;;19.81;57.35;101616.63;5039526;28;20144;-79
2022/05/22 11:28:48;;;;;;;2.90;1.10;;;;;;;19.83;57.97;101611.97;5037195;28;20494;-79
2022/05/22 11:31:32;;;;;;;1.77;0.90;;;;;;;19.92;58.88;101613.16;5036832;28;20052;-78
2022/05/22 11:34:14;;;;;;;1.92;0.80;;;;;;;19.96;52.94;101612.00;5036256;28;20045;-81
2022/05/22 11:37:00;;;;;;;3.38;1.00;;;;;;;19.96;56.69;101603.94;5035399;28;20475;-79
2022/05/22 11:39:35;;;;;;;2.58;0.90;;;;;;;20.12;58.55;101606.34;5036342;28;20463;-78
2022/05/22 11:42:19;;;;;;;1.83;1.00;;;;;;;20.24;59.71;101601.88;5010243;28;20170;-79